createdAt,value
2023-12-12T00:00:36.091Z,998.83
2023-12-12T00:01:37.210Z,998.77
2023-12-12T00:02:37.007Z,998.80
2023-12-12T00:03:37.005Z,998.77
2023-12-12T00:04:37.063Z,998.72
2023-12-12T00:05:37.064Z,998.74
2023-12-12T00:06:36.950Z,998.73
2023-12-12T00:07:37.060Z,998.69
2023-12-12T00:08:36.930Z,998.64
2023-12-12T00:09:36.898Z,998.68
2023-12-12T00:10:36.920Z,998.65
2023-12-12T00:11:37.002Z,998.71
2023-12-12T00:12:36.867Z,998.71
2023-12-12T00:13:36.899Z,998.70
2023-12-12T00:14:36.845Z,998.65
2023-12-12T00:15:36.837Z,998.70
2023-12-12T00:16:37.731Z,998.67
2023-12-12T00:17:37.175Z,998.72
2023-12-12T00:18:37.029Z,998.67
2023-12-12T00:19:36.824Z,998.63
2023-12-12T00:20:36.808Z,998.64
2023-12-12T00:21:36.764Z,998.67
2023-12-12T00:22:36.760Z,998.66
2023-12-12T00:23:37.373Z,998.65
2023-12-12T00:24:36.754Z,998.64
2023-12-12T00:25:36.766Z,998.64
2023-12-12T00:26:36.706Z,998.61
2023-12-12T00:27:36.709Z,998.57
2023-12-12T00:28:36.709Z,998.53
2023-12-12T00:29:36.718Z,998.52
2023-12-12T00:30:36.659Z,998.54
2023-12-12T00:31:36.721Z,998.51
2023-12-12T00:32:36.620Z,998.53
2023-12-12T00:33:36.690Z,998.45
2023-12-12T00:34:36.733Z,998.43
2023-12-12T00:35:36.573Z,998.44
2023-12-12T00:36:36.583Z,998.52
2023-12-12T00:37:36.734Z,998.52
2023-12-12T00:38:36.545Z,998.57
2023-12-12T00:39:36.541Z,998.57
2023-12-12T00:40:36.590Z,998.52
2023-12-12T00:41:36.516Z,998.51
2023-12-12T00:42:36.526Z,998.55
2023-12-12T00:43:36.534Z,998.56
2023-12-12T00:44:36.479Z,998.55
2023-12-12T00:45:36.523Z,998.54
2023-12-12T00:46:36.520Z,998.56
2023-12-12T00:47:36.713Z,998.61
2023-12-12T00:48:36.522Z,998.56
2023-12-12T00:49:36.446Z,998.59
2023-12-12T00:50:36.420Z,998.60
2023-12-12T00:51:36.412Z,998.59
2023-12-12T00:52:36.491Z,998.59
2023-12-12T00:53:36.364Z,998.61
2023-12-12T00:54:36.335Z,998.63
2023-12-12T00:55:36.362Z,998.66
2023-12-12T00:56:36.331Z,998.67
2023-12-12T00:57:36.330Z,998.70
2023-12-12T00:58:36.349Z,998.64
2023-12-12T00:59:36.960Z,998.70
2023-12-12T01:00:36.302Z,998.68
2023-12-12T01:01:36.364Z,998.68
2023-12-12T01:02:36.271Z,998.68
2023-12-12T01:03:36.299Z,998.64
2023-12-12T01:04:36.287Z,998.67
2023-12-12T01:05:36.531Z,998.66
2023-12-12T01:06:36.203Z,998.66
2023-12-12T01:07:36.533Z,998.61
2023-12-12T01:08:36.170Z,998.60
2023-12-12T01:09:36.157Z,998.66
2023-12-12T01:10:36.217Z,998.57
2023-12-12T01:11:36.140Z,998.64
2023-12-12T01:12:36.147Z,998.58
2023-12-12T01:13:36.138Z,998.61
2023-12-12T01:14:36.121Z,998.60
2023-12-12T01:15:36.080Z,998.60
2023-12-12T01:16:36.110Z,998.56
2023-12-12T01:17:36.452Z,998.50
2023-12-12T01:18:36.150Z,998.57
2023-12-12T01:19:36.109Z,998.56
2023-12-12T01:20:36.044Z,998.57
2023-12-12T01:21:36.005Z,998.56
2023-12-12T01:22:36.121Z,998.63
2023-12-12T01:23:35.974Z,998.60
2023-12-12T01:24:36.012Z,998.63
2023-12-12T01:25:36.053Z,998.63
2023-12-12T01:26:35.963Z,998.56
2023-12-12T01:27:35.954Z,998.64
2023-12-12T01:28:35.991Z,998.65
2023-12-12T01:29:35.908Z,998.67
2023-12-12T01:30:38.678Z,998.63
2023-12-12T01:31:35.960Z,998.61
2023-12-12T01:32:35.873Z,998.63
2023-12-12T01:33:35.885Z,998.61
2023-12-12T01:34:35.927Z,998.64
2023-12-12T01:35:35.846Z,998.62
2023-12-12T01:36:35.802Z,998.65
2023-12-12T01:37:36.168Z,998.60
2023-12-12T01:38:35.804Z,998.59
2023-12-12T01:39:35.784Z,998.57
2023-12-12T01:40:35.856Z,998.63
2023-12-12T01:41:35.782Z,998.60
2023-12-12T01:42:35.743Z,998.61
2023-12-12T01:43:35.757Z,998.62
2023-12-12T01:44:35.702Z,998.66
2023-12-12T01:45:35.731Z,998.65
2023-12-12T01:46:35.784Z,998.67
2023-12-12T01:47:35.984Z,998.68
2023-12-12T01:48:35.814Z,998.69
2023-12-12T01:49:35.765Z,998.70
2023-12-12T01:50:35.677Z,998.64
2023-12-12T01:51:35.622Z,998.69
2023-12-12T01:52:35.691Z,998.71
2023-12-12T01:53:35.601Z,998.72
2023-12-12T01:54:35.591Z,998.71
2023-12-12T01:55:35.579Z,998.68
2023-12-12T01:56:35.568Z,998.71
2023-12-12T01:57:35.554Z,998.61
2023-12-12T01:58:35.755Z,998.61
2023-12-12T01:59:35.547Z,998.58
2023-12-12T02:00:35.540Z,998.57
2023-12-12T02:01:35.547Z,998.53
2023-12-12T02:02:35.483Z,998.57
2023-12-12T02:03:35.500Z,998.53
2023-12-12T02:04:35.739Z,998.51
2023-12-12T02:05:56.619Z,998.48
2023-12-12T02:06:35.496Z,998.51
2023-12-12T02:07:35.465Z,998.51
2023-12-12T02:08:35.426Z,998.47
2023-12-12T02:09:35.412Z,998.48
2023-12-12T02:10:35.442Z,998.51
2023-12-12T02:11:35.365Z,998.48
2023-12-12T02:12:35.368Z,998.51
2023-12-12T02:13:35.397Z,998.49
2023-12-12T02:14:35.323Z,998.48
2023-12-12T02:15:35.353Z,998.52
2023-12-12T02:16:35.406Z,998.47
2023-12-12T02:17:35.518Z,998.47
2023-12-12T02:18:35.442Z,998.49
2023-12-12T02:19:35.485Z,998.50
2023-12-12T02:20:35.304Z,998.48
2023-12-12T02:21:35.271Z,998.50
2023-12-12T02:22:35.491Z,998.51
2023-12-12T02:23:35.242Z,998.49
2023-12-12T02:24:35.239Z,998.46
2023-12-12T02:25:35.240Z,998.46
2023-12-12T02:26:35.218Z,998.46
2023-12-12T02:27:35.241Z,998.46
2023-12-12T02:28:35.182Z,998.43
2023-12-12T02:29:35.155Z,998.44
2023-12-12T02:30:35.143Z,998.44
2023-12-12T02:31:35.286Z,998.43
2023-12-12T02:32:35.216Z,998.43
2023-12-12T02:33:35.183Z,998.46
2023-12-12T02:34:35.170Z,998.47
2023-12-12T02:35:35.085Z,998.47
2023-12-12T02:36:35.057Z,998.48
2023-12-12T02:37:35.594Z,998.50
2023-12-12T02:38:35.043Z,998.49
2023-12-12T02:39:35.048Z,998.53
2023-12-12T02:40:35.077Z,998.52
2023-12-12T02:41:35.000Z,998.54
2023-12-12T02:42:35.035Z,998.54
2023-12-12T02:43:35.005Z,998.54
2023-12-12T02:44:34.967Z,998.55
2023-12-12T02:45:34.970Z,998.56
2023-12-12T02:46:35.019Z,998.52
2023-12-12T02:47:35.230Z,998.56
2023-12-12T02:48:35.012Z,998.57
2023-12-12T02:49:34.987Z,998.54
2023-12-12T02:50:34.908Z,998.56
2023-12-12T02:51:34.884Z,998.48
2023-12-12T02:52:35.459Z,998.52
2023-12-12T02:53:34.849Z,998.53
2023-12-12T02:54:34.858Z,998.51
2023-12-12T02:55:34.988Z,998.50
2023-12-12T02:56:34.830Z,998.52
2023-12-12T02:57:35.046Z,998.51
2023-12-12T02:58:34.884Z,998.51
2023-12-12T02:59:34.802Z,998.48
2023-12-12T03:00:34.794Z,998.50
2023-12-12T03:01:34.800Z,998.50
2023-12-12T03:02:34.754Z,998.51
2023-12-12T03:03:34.746Z,998.52
2023-12-12T03:04:34.724Z,998.51
2023-12-12T03:05:34.771Z,998.50
2023-12-12T03:06:34.686Z,998.52
2023-12-12T03:07:35.003Z,998.54
2023-12-12T03:08:34.716Z,998.53
2023-12-12T03:09:34.674Z,998.51
2023-12-12T03:10:34.707Z,998.49
2023-12-12T03:11:34.628Z,998.54
2023-12-12T03:12:34.616Z,998.51
2023-12-12T03:13:34.633Z,998.52
2023-12-12T03:14:34.590Z,998.55
2023-12-12T03:15:34.594Z,998.59
2023-12-12T03:16:34.638Z,998.54
2023-12-12T03:17:35.106Z,998.54
2023-12-12T03:18:34.608Z,998.55
2023-12-12T03:19:34.657Z,998.50
2023-12-12T03:20:34.530Z,998.51
2023-12-12T03:21:34.551Z,998.51
2023-12-12T03:22:34.572Z,998.49
2023-12-12T03:23:34.482Z,998.52
2023-12-12T03:24:34.460Z,998.51
2023-12-12T03:25:34.515Z,998.50
2023-12-12T03:26:34.478Z,998.51
2023-12-12T03:27:34.585Z,998.52
2023-12-12T03:28:34.425Z,998.51
2023-12-12T03:29:34.422Z,998.51
2023-12-12T03:30:34.412Z,998.50
2023-12-12T03:31:34.444Z,998.52
2023-12-12T03:32:34.404Z,998.57
2023-12-12T03:33:34.431Z,998.59
2023-12-12T03:34:34.364Z,998.55
2023-12-12T03:35:34.335Z,998.57
2023-12-12T03:36:34.300Z,998.57
2023-12-12T03:37:34.757Z,998.56
2023-12-12T03:38:34.282Z,998.56
2023-12-12T03:39:34.294Z,998.54
2023-12-12T03:40:34.388Z,998.50
2023-12-12T03:41:34.268Z,998.51
2023-12-12T03:42:34.244Z,998.47
2023-12-12T03:43:34.319Z,998.45
2023-12-12T03:44:34.227Z,998.46
2023-12-12T03:45:34.189Z,998.45
2023-12-12T03:46:34.249Z,998.41
2023-12-12T03:47:34.586Z,998.41
2023-12-12T03:48:34.203Z,998.41
2023-12-12T03:49:34.237Z,998.35
2023-12-12T03:50:34.138Z,998.35
2023-12-12T03:51:34.127Z,998.32
2023-12-12T03:52:34.170Z,998.31
2023-12-12T03:53:34.131Z,998.27
2023-12-12T03:54:34.102Z,998.29
2023-12-12T03:55:34.113Z,998.29
2023-12-12T03:56:34.080Z,998.27
2023-12-12T03:57:34.450Z,998.21
2023-12-12T03:58:34.104Z,998.25
2023-12-12T03:59:34.056Z,998.25
2023-12-12T04:00:34.101Z,998.25
2023-12-12T04:01:34.086Z,998.24
2023-12-12T04:02:33.978Z,998.20
2023-12-12T04:03:33.995Z,998.21
2023-12-12T04:04:34.228Z,998.20
2023-12-12T04:05:33.979Z,998.17
2023-12-12T04:06:33.922Z,998.16
2023-12-12T04:07:34.220Z,998.22
2023-12-12T04:08:33.918Z,998.19
2023-12-12T04:09:33.922Z,998.16
2023-12-12T04:10:33.968Z,998.21
2023-12-12T04:11:33.892Z,998.17
2023-12-12T04:12:33.863Z,998.19
2023-12-12T04:13:33.930Z,998.19
2023-12-12T04:14:33.856Z,998.15
2023-12-12T04:15:33.849Z,998.18
2023-12-12T04:16:33.928Z,998.15
2023-12-12T04:17:34.263Z,998.11
2023-12-12T04:18:33.846Z,998.15
2023-12-12T04:19:33.848Z,998.15
2023-12-12T04:20:33.751Z,998.19
2023-12-12T04:21:33.752Z,998.17
2023-12-12T04:22:51.841Z,998.15
2023-12-12T04:23:33.736Z,998.14
2023-12-12T04:24:33.771Z,998.12
2023-12-12T04:27:09.857Z,998.09
2023-12-12T04:27:15.325Z,998.06
2023-12-12T04:28:15.359Z,998.10
2023-12-12T04:29:15.277Z,998.07
2023-12-12T04:30:15.277Z,998.05
2023-12-12T04:31:15.293Z,998.07
2023-12-12T04:32:15.252Z,998.01
2023-12-12T04:33:15.314Z,997.99
2023-12-12T04:34:15.288Z,998.02
2023-12-12T04:35:15.198Z,997.92
2023-12-12T04:36:15.271Z,997.92
2023-12-12T04:37:15.215Z,997.91
2023-12-12T04:38:15.404Z,997.92
2023-12-12T04:39:15.156Z,997.93
2023-12-12T04:40:15.242Z,997.86
2023-12-12T04:41:15.121Z,997.85
2023-12-12T04:42:15.131Z,997.93
2023-12-12T04:43:15.182Z,997.90
2023-12-12T04:44:15.099Z,997.93
2023-12-12T04:45:15.077Z,997.89
2023-12-12T04:46:15.124Z,997.88
2023-12-12T04:47:15.122Z,997.88
2023-12-12T04:48:15.128Z,997.82
2023-12-12T04:49:15.147Z,997.81
2023-12-12T04:50:15.030Z,997.82
2023-12-12T04:51:15.012Z,997.79
2023-12-12T04:52:15.231Z,997.76
2023-12-12T04:53:14.983Z,997.76
2023-12-12T04:54:14.996Z,997.79
2023-12-12T04:55:15.050Z,997.74
2023-12-12T04:56:14.947Z,997.74
2023-12-12T04:57:14.983Z,997.75
2023-12-12T04:58:14.939Z,997.80
2023-12-12T04:59:14.917Z,997.76
2023-12-12T05:00:15.182Z,997.74
2023-12-12T05:01:14.946Z,997.70
2023-12-12T05:02:14.859Z,997.67
2023-12-12T05:03:14.891Z,997.67
2023-12-12T05:04:14.883Z,997.69
2023-12-12T05:05:14.880Z,997.69
2023-12-12T05:06:14.926Z,997.73
2023-12-12T05:07:14.825Z,997.71
2023-12-12T05:08:14.795Z,997.73
2023-12-12T05:09:14.791Z,997.78
2023-12-12T05:10:14.815Z,997.78
2023-12-12T05:11:14.757Z,997.76
2023-12-12T05:12:14.740Z,997.82
2023-12-12T05:13:14.799Z,997.80
2023-12-12T05:14:14.709Z,997.79
2023-12-12T05:15:14.898Z,997.83
2023-12-12T05:16:24.338Z,997.82
2023-12-12T05:17:14.768Z,997.81
2023-12-12T05:18:14.816Z,997.83
2023-12-12T05:19:14.767Z,997.78
2023-12-12T05:20:14.751Z,997.80
2023-12-12T05:21:14.635Z,997.75
2023-12-12T05:22:14.629Z,997.74
2023-12-12T05:23:14.611Z,997.74
2023-12-12T05:24:14.876Z,997.71
2023-12-12T05:25:14.648Z,997.67
2023-12-12T05:26:14.579Z,997.64
2023-12-12T05:27:14.568Z,997.69
2023-12-12T05:28:14.588Z,997.63
2023-12-12T05:29:14.573Z,997.73
2023-12-12T05:30:14.527Z,997.65
2023-12-12T05:31:14.603Z,997.67
2023-12-12T05:32:14.621Z,997.67
2023-12-12T05:33:14.693Z,997.68
2023-12-12T05:34:14.576Z,997.65
2023-12-12T05:35:14.449Z,997.66
2023-12-12T05:36:14.452Z,997.62
2023-12-12T05:37:14.500Z,997.67
2023-12-12T05:38:14.416Z,997.64
2023-12-12T05:39:14.390Z,997.63
2023-12-12T05:40:14.512Z,997.68
2023-12-12T05:41:14.372Z,997.64
2023-12-12T05:42:14.361Z,997.64
2023-12-12T05:43:14.436Z,997.61
2023-12-12T05:44:14.340Z,997.63
2023-12-12T05:45:14.373Z,997.62
2023-12-12T05:46:14.368Z,997.60
2023-12-12T05:47:14.308Z,997.59
2023-12-12T05:48:14.469Z,997.59
2023-12-12T05:49:14.369Z,997.58
2023-12-12T05:50:14.287Z,997.53
2023-12-12T05:51:14.250Z,997.52
2023-12-12T05:52:14.268Z,997.55
2023-12-12T05:53:14.224Z,997.54
2023-12-12T05:54:14.259Z,997.54
2023-12-12T05:55:14.231Z,997.56
2023-12-12T05:56:14.181Z,997.55
2023-12-12T05:57:14.190Z,997.60
2023-12-12T05:58:14.200Z,997.62
2023-12-12T05:59:14.149Z,997.64
2023-12-12T06:00:14.134Z,997.61
2023-12-12T06:01:14.175Z,997.59
2023-12-12T06:02:14.208Z,997.59
2023-12-12T06:03:14.314Z,997.62
2023-12-12T06:04:14.606Z,997.62
2023-12-12T06:05:14.216Z,997.65
2023-12-12T06:06:14.196Z,997.71
2023-12-12T06:07:14.071Z,997.63
2023-12-12T06:08:14.060Z,997.63
2023-12-12T06:09:14.030Z,997.64
2023-12-12T06:10:14.051Z,997.63
2023-12-12T06:11:14.031Z,997.57
2023-12-12T06:12:13.978Z,997.57
2023-12-12T06:13:14.032Z,997.56
2023-12-12T06:14:13.977Z,997.58
2023-12-12T06:15:13.941Z,997.57
2023-12-12T06:16:16.063Z,997.55
2023-12-12T06:17:13.939Z,997.53
2023-12-12T06:18:13.973Z,997.58
2023-12-12T06:19:13.963Z,997.59
2023-12-12T06:20:13.941Z,997.55
2023-12-12T06:21:14.006Z,997.54
2023-12-12T06:22:13.892Z,997.56
2023-12-12T06:23:13.861Z,997.54
2023-12-12T06:24:13.851Z,997.54
2023-12-12T06:25:13.882Z,997.65
2023-12-12T06:26:14.006Z,997.61
2023-12-12T06:27:14.006Z,997.58
2023-12-12T06:28:14.067Z,997.59
2023-12-12T06:29:13.794Z,997.62
2023-12-12T06:30:13.792Z,997.53
2023-12-12T06:31:14.084Z,997.58
2023-12-12T06:32:13.789Z,997.51
2023-12-12T06:33:13.841Z,997.48
2023-12-12T06:34:14.779Z,997.50
2023-12-12T06:35:13.802Z,997.46
2023-12-12T06:36:15.220Z,997.49
2023-12-12T06:37:13.697Z,997.45
2023-12-12T06:38:14.460Z,997.43
2023-12-12T06:39:13.617Z,997.42
2023-12-12T06:40:14.541Z,997.36
2023-12-12T06:41:13.725Z,997.33
2023-12-12T06:42:13.866Z,997.37
2023-12-12T06:43:13.834Z,997.25
2023-12-12T06:44:13.584Z,997.28
2023-12-12T06:45:13.768Z,997.23
2023-12-12T06:46:24.110Z,997.21
2023-12-12T06:47:14.029Z,997.22
2023-12-12T06:48:17.498Z,997.18
2023-12-12T06:49:14.208Z,997.17
2023-12-12T06:50:40.424Z,997.16
2023-12-12T06:51:27.302Z,997.15
2023-12-12T06:52:13.453Z,997.20
2023-12-12T06:53:15.008Z,997.19
2023-12-12T06:54:13.411Z,997.24
2023-12-12T06:55:13.400Z,997.24
2023-12-12T06:56:13.756Z,997.23
2023-12-12T06:57:13.400Z,997.24
2023-12-12T06:58:14.115Z,997.25
2023-12-12T06:59:19.507Z,997.28
2023-12-12T07:00:14.940Z,997.27
2023-12-12T07:01:13.437Z,997.29
2023-12-12T07:02:13.558Z,997.31
2023-12-12T07:03:13.409Z,997.35
2023-12-12T07:04:13.370Z,997.33
2023-12-12T07:05:13.332Z,997.30
2023-12-12T07:06:13.344Z,997.31
2023-12-12T07:07:13.322Z,997.33
2023-12-12T07:08:13.290Z,997.35
2023-12-12T07:09:13.214Z,997.39
2023-12-12T07:10:13.273Z,997.37
2023-12-12T07:11:13.403Z,997.35
2023-12-12T07:12:13.176Z,997.36
2023-12-12T07:13:13.211Z,997.34
2023-12-12T07:14:14.024Z,997.37
2023-12-12T07:15:13.180Z,997.36
2023-12-12T07:16:13.202Z,997.35
2023-12-12T07:17:13.118Z,997.36
2023-12-12T07:19:31.015Z,997.35
2023-12-12T07:19:36.547Z,997.34
2023-12-12T07:22:23.908Z,997.32
2023-12-12T07:23:23.228Z,997.26
2023-12-12T07:25:09.200Z,997.25
2023-12-12T07:29:05.337Z,997.32
2023-12-12T07:30:14.621Z,997.24
2023-12-12T07:30:38.041Z,997.25
2023-12-12T07:31:43.158Z,997.29
2023-12-12T07:32:37.303Z,997.24
2023-12-12T07:33:52.599Z,997.26
2023-12-12T07:34:37.802Z,997.27
2023-12-12T07:38:37.741Z,997.19
2023-12-12T07:40:07.690Z,997.11
2023-12-12T07:40:38.793Z,997.17
2023-12-12T07:46:13.044Z,997.20
2023-12-12T07:47:14.074Z,997.17
2023-12-12T07:48:14.296Z,997.19
2023-12-12T07:49:14.296Z,997.16
2023-12-12T07:50:14.309Z,997.12
2023-12-12T07:56:13.408Z,997.10
2023-12-12T07:57:45.870Z,997.02
2023-12-12T08:00:46.308Z,997.04
2023-12-12T08:02:09.197Z,996.86
2023-12-12T08:03:08.650Z,996.80
2023-12-12T08:04:09.064Z,996.79
2023-12-12T08:05:24.458Z,996.75
2023-12-12T08:06:08.605Z,996.76
2023-12-12T08:07:08.981Z,996.79
2023-12-12T08:08:08.564Z,996.77
2023-12-12T08:09:08.573Z,996.76
2023-12-12T08:10:08.561Z,996.78
2023-12-12T08:11:08.502Z,996.76
2023-12-12T08:12:08.488Z,996.79
2023-12-12T08:13:08.605Z,996.79
2023-12-12T08:14:08.531Z,996.74
2023-12-12T08:15:08.463Z,996.75
2023-12-12T08:16:10.250Z,996.73
2023-12-12T08:17:08.434Z,996.68
2023-12-12T08:18:08.448Z,996.66
2023-12-12T08:19:08.505Z,996.61
2023-12-12T08:20:08.527Z,996.64
2023-12-12T08:21:09.100Z,996.62
2023-12-12T08:22:08.610Z,996.63
2023-12-12T08:23:08.378Z,996.61
2023-12-12T08:24:12.325Z,996.60
2023-12-12T08:25:08.445Z,996.60
2023-12-12T08:26:08.351Z,996.65
2023-12-12T08:27:09.019Z,996.64
2023-12-12T08:28:08.379Z,996.67
2023-12-12T08:45:46.851Z,996.68
2023-12-12T08:45:57.380Z,996.49
2023-12-12T08:46:52.231Z,996.47
2023-12-12T08:47:52.260Z,996.43
2023-12-12T08:48:52.252Z,996.45
2023-12-12T08:49:52.276Z,996.45
2023-12-12T08:51:10.372Z,996.44
2023-12-12T08:51:52.161Z,996.44
2023-12-12T08:52:52.183Z,996.40
2023-12-12T08:53:52.203Z,996.35
2023-12-12T08:55:20.809Z,996.36
2023-12-12T09:01:57.676Z,996.36
2023-12-12T09:02:58.493Z,996.33
2023-12-12T09:08:31.292Z,996.33
2023-12-12T09:08:37.236Z,996.45
2023-12-12T09:09:37.234Z,996.41
2023-12-12T09:10:45.297Z,996.39
2023-12-12T09:11:42.462Z,996.30
2023-12-12T09:12:37.185Z,996.24
2023-12-12T09:13:49.470Z,996.30
2023-12-12T09:14:37.261Z,996.23
2023-12-12T09:16:03.411Z,996.14
2023-12-12T09:16:38.883Z,996.16
2023-12-12T09:17:37.556Z,996.14
2023-12-12T09:18:37.168Z,996.17
2023-12-12T09:20:24.368Z,996.18
2023-12-12T09:20:39.360Z,996.22
2023-12-12T09:21:58.095Z,996.16
2023-12-12T09:23:13.035Z,996.27
2023-12-12T09:23:37.027Z,996.18
2023-12-12T10:30:39.366Z,994.53
2023-12-12T10:31:40.335Z,994.54
2023-12-12T10:39:28.942Z,994.48
2023-12-12T10:40:35.377Z,994.51
2023-12-12T11:30:43.353Z,993.46
2023-12-12T11:32:32.824Z,993.42
2023-12-12T11:42:06.991Z,993.53
2023-12-12T12:17:47.479Z,992.93
2023-12-12T12:17:59.244Z,992.92
2023-12-12T13:22:29.755Z,992.20
2023-12-12T13:23:29.535Z,992.21
2023-12-12T13:24:29.534Z,992.19
2023-12-12T13:25:30.222Z,992.23
2023-12-12T13:26:29.524Z,992.24
2023-12-12T13:27:38.982Z,992.29
2023-12-12T13:28:29.533Z,992.28
2023-12-12T13:29:29.480Z,992.27
2023-12-12T13:30:46.892Z,992.33
2023-12-12T13:31:36.050Z,992.27
2023-12-12T13:32:29.716Z,992.28
2023-12-12T13:33:32.029Z,992.26
2023-12-12T13:34:29.622Z,992.23
2023-12-12T13:35:35.702Z,992.24
2023-12-12T13:36:29.432Z,992.22
2023-12-12T13:38:23.051Z,992.18
2023-12-12T13:38:29.354Z,992.19
2023-12-12T13:40:03.561Z,992.17
2023-12-12T13:45:15.808Z,992.19
2023-12-12T13:53:30.830Z,992.02
2023-12-12T13:53:46.649Z,991.94
2023-12-12T13:59:20.937Z,991.61
2023-12-12T14:00:20.160Z,991.57
2023-12-12T14:01:19.218Z,991.67
